sensor_id;sensor_type;location;lat;lon;timestamp;pressure;altitude;pressure_sealevel;temperature;humidity
6532;BME280;3299;42.004;24.868;2024-02-26T00:00:28;97744.47;;;11.90;94.19
6532;BME280;3299;42.004;24.868;2024-02-26T00:02:54;97769.97;;;12.15;91.20
6532;BME280;3299;42.004;24.868;2024-02-26T00:05:20;97774.16;;;12.06;79.85
6532;BME280;3299;42.004;24.868;2024-02-26T00:07:45;97831.34;;;12.44;78.47
6532;BME280;3299;42.004;24.868;2024-02-26T00:10:12;97777.69;;;12.05;83.86
6532;BME280;3299;42.004;24.868;2024-02-26T00:12:38;97790.06;;;12.22;94.06
6532;BME280;3299;42.004;24.868;2024-02-26T00:15:05;97790.91;;;12.32;97.19
6532;BME280;3299;42.004;24.868;2024-02-26T00:17:31;97825.72;;;12.60;98.42
6532;BME280;3299;42.004;24.868;2024-02-26T00:19:56;97759.06;;;12.21;98.73
6532;BME280;3299;42.004;24.868;2024-02-26T00:22:21;97825.00;;;12.58;100.00
6532;BME280;3299;42.004;24.868;2024-02-26T00:24:47;97836.44;;;12.46;85.24
6532;BME280;3299;42.004;24.868;2024-02-26T00:27:12;97762.84;;;11.87;95.18
6532;BME280;3299;42.004;24.868;2024-02-26T00:29:38;97835.41;;;12.28;97.66
6532;BME280;3299;42.004;24.868;2024-02-26T00:32:03;97808.41;;;12.10;95.13
6532;BME280;3299;42.004;24.868;2024-02-26T00:34:29;97829.09;;;12.21;86.76
6532;BME280;3299;42.004;24.868;2024-02-26T00:36:54;97787.00;;;12.08;86.42
6532;BME280;3299;42.004;24.868;2024-02-26T00:39:20;97761.94;;;11.97;88.86
6532;BME280;3299;42.004;24.868;2024-02-26T00:41:45;97785.59;;;12.34;92.76
6532;BME280;3299;42.004;24.868;2024-02-26T00:44:10;97804.22;;;12.48;94.93
6532;BME280;3299;42.004;24.868;2024-02-26T00:46:36;97757.44;;;12.29;94.57
6532;BME280;3299;42.004;24.868;2024-02-26T00:49:02;97767.19;;;12.37;88.63
6532;BME280;3299;42.004;24.868;2024-02-26T00:51:28;97797.31;;;12.68;91.60
6532;BME280;3299;42.004;24.868;2024-02-26T00:53:54;97743.41;;;12.32;92.63
6532;BME280;3299;42.004;24.868;2024-02-26T00:56:21;97804.66;;;12.63;86.84
6532;BME280;3299;42.004;24.868;2024-02-26T00:58:46;97795.81;;;12.65;79.40
6532;BME280;3299;42.004;24.868;2024-02-26T01:01:12;97797.59;;;12.65;78.34
6532;BME280;3299;42.004;24.868;2024-02-26T01:03:37;97768.13;;;12.36;78.87
6532;BME280;3299;42.004;24.868;2024-02-26T01:06:03;97710.31;;;12.15;84.86
6532;BME280;3299;42.004;24.868;2024-02-26T01:08:28;97765.84;;;12.52;86.09
6532;BME280;3299;42.004;24.868;2024-02-26T01:10:54;97694.84;;;12.04;86.75
6532;BME280;3299;42.004;24.868;2024-02-26T01:13:19;97684.31;;;11.96;87.71
6532;BME280;3299;42.004;24.868;2024-02-26T01:15:44;97719.59;;;12.17;88.06
6532;BME280;3299;42.004;24.868;2024-02-26T01:18:10;97741.78;;;12.31;88.13
6532;BME280;3299;42.004;24.868;2024-02-26T01:20:35;97765.91;;;12.31;82.83
6532;BME280;3299;42.004;24.868;2024-02-26T01:23:01;97750.41;;;12.11;77.52
6532;BME280;3299;42.004;24.868;2024-02-26T01:25:27;97766.84;;;12.21;77.88
6532;BME280;3299;42.004;24.868;2024-02-26T01:27:53;97791.72;;;12.33;76.70
6532;BME280;3299;42.004;24.868;2024-02-26T01:30:18;97752.44;;;12.07;76.19
6532;BME280;3299;42.004;24.868;2024-02-26T01:32:44;97788.31;;;12.32;76.03
6532;BME280;3299;42.004;24.868;2024-02-26T01:35:09;97706.78;;;11.86;74.37
6532;BME280;3299;42.004;24.868;2024-02-26T01:37:37;97736.25;;;12.15;75.16
6532;BME280;3299;42.004;24.868;2024-02-26T01:40:03;97778.09;;;12.31;76.11
6532;BME280;3299;42.004;24.868;2024-02-26T01:42:30;97737.19;;;12.14;75.88
6532;BME280;3299;42.004;24.868;2024-02-26T01:44:56;97701.16;;;11.81;76.07
6532;BME280;3299;42.004;24.868;2024-02-26T01:47:22;97776.78;;;12.16;76.94
6532;BME280;3299;42.004;24.868;2024-02-26T01:49:48;97710.34;;;11.85;76.61
6532;BME280;3299;42.004;24.868;2024-02-26T01:52:14;97698.56;;;11.81;76.72
6532;BME280;3299;42.004;24.868;2024-02-26T01:54:42;97696.94;;;11.80;76.53
6532;BME280;3299;42.004;24.868;2024-02-26T01:57:09;97732.38;;;11.79;77.06
6532;BME280;3299;42.004;24.868;2024-02-26T01:59:35;97732.97;;;11.62;78.14
6532;BME280;3299;42.004;24.868;2024-02-26T02:02:03;97774.78;;;11.99;78.62
6532;BME280;3299;42.004;24.868;2024-02-26T02:04:30;97750.22;;;11.93;76.75
6532;BME280;3299;42.004;24.868;2024-02-26T02:06:58;97797.97;;;12.21;77.76
6532;BME280;3299;42.004;24.868;2024-02-26T02:09:25;97794.75;;;12.38;78.54
6532;BME280;3299;42.004;24.868;2024-02-26T02:11:51;97700.09;;;11.83;84.85
6532;BME280;3299;42.004;24.868;2024-02-26T02:14:17;97743.88;;;12.07;85.72
6532;BME280;3299;42.004;24.868;2024-02-26T02:16:42;97692.44;;;11.82;88.77
6532;BME280;3299;42.004;24.868;2024-02-26T02:19:08;97726.78;;;12.04;91.24
6532;BME280;3299;42.004;24.868;2024-02-26T02:21:33;97712.69;;;11.97;92.98
6532;BME280;3299;42.004;24.868;2024-02-26T02:23:58;97778.25;;;12.39;94.10
6532;BME280;3299;42.004;24.868;2024-02-26T02:26:24;97729.66;;;12.11;94.12
6532;BME280;3299;42.004;24.868;2024-02-26T02:28:50;97764.72;;;12.35;94.51
6532;BME280;3299;42.004;24.868;2024-02-26T02:31:15;97758.53;;;12.27;96.89
6532;BME280;3299;42.004;24.868;2024-02-26T02:33:41;97778.88;;;12.31;97.30
6532;BME280;3299;42.004;24.868;2024-02-26T02:36:07;97758.25;;;12.30;94.80
6532;BME280;3299;42.004;24.868;2024-02-26T02:38:39;97750.06;;;12.25;94.19
6532;BME280;3299;42.004;24.868;2024-02-26T02:41:14;97773.56;;;12.33;93.93
6532;BME280;3299;42.004;24.868;2024-02-26T02:43:39;97781.34;;;12.33;93.25
6532;BME280;3299;42.004;24.868;2024-02-26T02:46:05;97710.06;;;11.88;93.07
6532;BME280;3299;42.004;24.868;2024-02-26T02:48:31;97689.66;;;11.64;92.73
6532;BME280;3299;42.004;24.868;2024-02-26T02:50:57;97777.41;;;12.08;92.48
6532;BME280;3299;42.004;24.868;2024-02-26T02:53:22;97769.88;;;11.96;92.02
6532;BME280;3299;42.004;24.868;2024-02-26T02:55:47;97740.03;;;11.81;90.67
6532;BME280;3299;42.004;24.868;2024-02-26T02:58:13;97748.09;;;11.78;90.54
6532;BME280;3299;42.004;24.868;2024-02-26T03:00:38;97751.88;;;11.74;91.47
6532;BME280;3299;42.004;24.868;2024-02-26T03:03:04;97703.38;;;11.44;91.92
6532;BME280;3299;42.004;24.868;2024-02-26T03:05:30;97705.94;;;11.14;93.27
6532;BME280;3299;42.004;24.868;2024-02-26T03:07:55;97657.09;;;10.69;93.38
6532;BME280;3299;42.004;24.868;2024-02-26T03:10:20;97749.81;;;11.16;94.38
6532;BME280;3299;42.004;24.868;2024-02-26T03:12:46;97735.34;;;11.13;94.20
6532;BME280;3299;42.004;24.868;2024-02-26T03:15:11;97781.25;;;11.43;93.97
6532;BME280;3299;42.004;24.868;2024-02-26T03:17:37;97762.84;;;11.46;92.56
6532;BME280;3299;42.004;24.868;2024-02-26T03:20:03;97770.44;;;11.38;91.55
6532;BME280;3299;42.004;24.868;2024-02-26T03:22:30;97715.06;;;10.98;91.90
6532;BME280;3299;42.004;24.868;2024-02-26T03:24:56;97788.06;;;11.44;92.08
6532;BME280;3299;42.004;24.868;2024-02-26T03:27:21;97788.94;;;11.54;92.31
6532;BME280;3299;42.004;24.868;2024-02-26T03:29:46;97771.31;;;11.48;93.09
6532;BME280;3299;42.004;24.868;2024-02-26T03:32:13;97752.94;;;11.30;94.76
6532;BME280;3299;42.004;24.868;2024-02-26T03:34:38;97723.75;;;11.08;96.78
6532;BME280;3299;42.004;24.868;2024-02-26T03:37:06;97772.25;;;11.26;99.26
6532;BME280;3299;42.004;24.868;2024-02-26T03:39:34;97763.31;;;10.99;100.00
6532;BME280;3299;42.004;24.868;2024-02-26T03:42:00;97701.59;;;10.52;100.00
6532;BME280;3299;42.004;24.868;2024-02-26T03:44:25;97750.66;;;10.85;100.00
6532;BME280;3299;42.004;24.868;2024-02-26T03:46:50;97731.28;;;10.68;100.00
6532;BME280;3299;42.004;24.868;2024-02-26T03:49:16;97745.50;;;10.74;100.00
6532;BME280;3299;42.004;24.868;2024-02-26T03:51:41;97775.88;;;11.03;100.00
6532;BME280;3299;42.004;24.868;2024-02-26T03:54:07;97750.16;;;10.91;100.00
6532;BME280;3299;42.004;24.868;2024-02-26T03:56:32;97751.81;;;10.92;100.00
6532;BME280;3299;42.004;24.868;2024-02-26T03:58:58;97793.38;;;11.11;100.00
6532;BME280;3299;42.004;24.868;2024-02-26T04:01:24;97760.06;;;10.86;100.00
6532;BME280;3299;42.004;24.868;2024-02-26T04:03:50;97779.75;;;11.09;100.00
6532;BME280;3299;42.004;24.868;2024-02-26T04:06:15;97780.63;;;11.19;100.00
6532;BME280;3299;42.004;24.868;2024-02-26T04:08:43;97770.06;;;11.11;100.00
6532;BME280;3299;42.004;24.868;2024-02-26T04:11:08;97790.25;;;11.28;100.00
6532;BME280;3299;42.004;24.868;2024-02-26T04:13:34;97704.56;;;10.79;100.00
6532;BME280;3299;42.004;24.868;2024-02-26T04:16:00;97738.25;;;10.99;100.00
6532;BME280;3299;42.004;24.868;2024-02-26T04:18:29;97732.97;;;10.90;100.00
6532;BME280;3299;42.004;24.868;2024-02-26T04:20:54;97767.75;;;11.08;100.00
6532;BME280;3299;42.004;24.868;2024-02-26T04:23:20;97738.63;;;10.84;100.00
6532;BME280;3299;42.004;24.868;2024-02-26T04:25:45;97708.50;;;10.51;100.00
6532;BME280;3299;42.004;24.868;2024-02-26T04:28:10;97709.81;;;10.57;100.00
6532;BME280;3299;42.004;24.868;2024-02-26T04:30:36;97775.88;;;11.03;100.00
6532;BME280;3299;42.004;24.868;2024-02-26T04:33:02;97743.91;;;10.62;100.00
6532;BME280;3299;42.004;24.868;2024-02-26T04:35:27;97761.72;;;10.76;100.00
6532;BME280;3299;42.004;24.868;2024-02-26T04:37:53;97743.91;;;10.62;100.00
6532;BME280;3299;42.004;24.868;2024-02-26T04:40:18;97719.59;;;10.42;100.00
6532;BME280;3299;42.004;24.868;2024-02-26T04:42:43;97724.44;;;10.36;100.00
6532;BME280;3299;42.004;24.868;2024-02-26T04:45:09;97769.03;;;10.71;100.00
6532;BME280;3299;42.004;24.868;2024-02-26T04:47:34;97752.44;;;10.73;100.00
6532;BME280;3299;42.004;24.868;2024-02-26T04:50:00;97749.28;;;10.70;100.00
6532;BME280;3299;42.004;24.868;2024-02-26T04:52:25;97789.88;;;11.01;100.00
6532;BME280;3299;42.004;24.868;2024-02-26T04:54:51;97708.41;;;10.53;100.00
6532;BME280;3299;42.004;24.868;2024-02-26T04:57:16;97787.66;;;10.96;100.00
6532;BME280;3299;42.004;24.868;2024-02-26T04:59:44;97765.56;;;10.81;100.00
6532;BME280;3299;42.004;24.868;2024-02-26T05:02:11;97748.34;;;10.71;100.00
6532;BME280;3299;42.004;24.868;2024-02-26T05:04:36;97740.97;;;10.55;100.00
6532;BME280;3299;42.004;24.868;2024-02-26T05:07:02;97714.81;;;10.27;100.00
6532;BME280;3299;42.004;24.868;2024-02-26T05:09:27;97701.53;;;9.98;100.00
6532;BME280;3299;42.004;24.868;2024-02-26T05:11:53;97747.50;;;10.17;100.00
6532;BME280;3299;42.004;24.868;2024-02-26T05:14:18;97781.09;;;10.28;100.00
6532;BME280;3299;42.004;24.868;2024-02-26T05:16:43;97753.81;;;10.13;100.00
6532;BME280;3299;42.004;24.868;2024-02-26T05:19:09;97792.81;;;10.43;100.00
6532;BME280;3299;42.004;24.868;2024-02-26T05:21:34;97740.78;;;10.25;100.00
6532;BME280;3299;42.004;24.868;2024-02-26T05:24:00;97713.41;;;10.12;100.00
6532;BME280;3299;42.004;24.868;2024-02-26T05:26:25;97718.00;;;10.08;100.00
6532;BME280;3299;42.004;24.868;2024-02-26T05:28:54;97790.22;;;10.65;100.00
6532;BME280;3299;42.004;24.868;2024-02-26T05:31:25;97794.50;;;10.86;100.00
6532;BME280;3299;42.004;24.868;2024-02-26T05:33:50;97783.34;;;10.86;100.00
6532;BME280;3299;42.004;24.868;2024-02-26T05:36:22;97801.09;;;10.90;100.00
6532;BME280;3299;42.004;24.868;2024-02-26T05:38:48;97802.59;;;11.04;100.00
6532;BME280;3299;42.004;24.868;2024-02-26T05:41:15;97776.34;;;10.97;99.51
6532;BME280;3299;42.004;24.868;2024-02-26T05:43:41;97764.50;;;10.84;100.00
6532;BME280;3299;42.004;24.868;2024-02-26T05:46:07;97756.06;;;10.82;100.00
6532;BME280;3299;42.004;24.868;2024-02-26T05:48:32;97816.88;;;11.19;100.00
6532;BME280;3299;42.004;24.868;2024-02-26T05:50:57;97735.41;;;10.60;100.00
6532;BME280;3299;42.004;24.868;2024-02-26T05:53:23;97777.47;;;10.84;100.00
6532;BME280;3299;42.004;24.868;2024-02-26T05:55:48;97739.88;;;10.69;100.00
6532;BME280;3299;42.004;24.868;2024-02-26T05:58:14;97818.22;;;11.13;95.43
6532;BME280;3299;42.004;24.868;2024-02-26T06:00:39;97812.53;;;11.19;95.71
6532;BME280;3299;42.004;24.868;2024-02-26T06:03:04;97840.88;;;11.32;93.62
6532;BME280;3299;42.004;24.868;2024-02-26T06:05:30;97771.69;;;10.91;93.21
6532;BME280;3299;42.004;24.868;2024-02-26T06:07:55;97827.69;;;11.24;93.99
6532;BME280;3299;42.004;24.868;2024-02-26T06:10:21;97796.56;;;11.03;92.88
6532;BME280;3299;42.004;24.868;2024-02-26T06:12:47;97790.34;;;11.06;91.93
6532;BME280;3299;42.004;24.868;2024-02-26T06:15:12;97765.47;;;10.83;91.99
6532;BME280;3299;42.004;24.868;2024-02-26T06:17:38;97780.00;;;10.95;93.20
6532;BME280;3299;42.004;24.868;2024-02-26T06:20:03;97835.03;;;11.39;93.32
6532;BME280;3299;42.004;24.868;2024-02-26T06:22:31;97777.50;;;11.04;93.40
6532;BME280;3299;42.004;24.868;2024-02-26T06:24:57;97803.50;;;11.14;94.52
6532;BME280;3299;42.004;24.868;2024-02-26T06:27:23;97865.50;;;11.47;94.87
6532;BME280;3299;42.004;24.868;2024-02-26T06:29:49;97825.56;;;11.29;95.90
6532;BME280;3299;42.004;24.868;2024-02-26T06:32:14;97864.63;;;11.68;97.11
6532;BME280;3299;42.004;24.868;2024-02-26T06:34:40;97811.88;;;11.38;98.67
6532;BME280;3299;42.004;24.868;2024-02-26T06:37:07;97842.88;;;11.60;99.57
6532;BME280;3299;42.004;24.868;2024-02-26T06:39:33;97777.13;;;11.20;100.00
6532;BME280;3299;42.004;24.868;2024-02-26T06:41:58;97850.88;;;11.68;100.00
6532;BME280;3299;42.004;24.868;2024-02-26T06:44:27;97874.59;;;11.84;100.00
6532;BME280;3299;42.004;24.868;2024-02-26T06:47:00;97786.34;;;11.33;100.00
6532;BME280;3299;42.004;24.868;2024-02-26T06:49:27;97853.13;;;11.82;100.00
6532;BME280;3299;42.004;24.868;2024-02-26T06:51:53;97830.38;;;11.65;100.00
6532;BME280;3299;42.004;24.868;2024-02-26T06:54:19;97839.44;;;11.70;100.00
6532;BME280;3299;42.004;24.868;2024-02-26T06:56:44;97866.88;;;11.93;100.00
6532;BME280;3299;42.004;24.868;2024-02-26T06:59:10;97840.22;;;11.71;100.00
6532;BME280;3299;42.004;24.868;2024-02-26T07:01:35;97808.41;;;11.48;100.00
6532;BME280;3299;42.004;24.868;2024-02-26T07:04:00;97798.66;;;11.41;100.00
6532;BME280;3299;42.004;24.868;2024-02-26T07:06:28;97882.94;;;11.87;100.00
6532;BME280;3299;42.004;24.868;2024-02-26T07:08:54;97878.31;;;11.91;100.00
6532;BME280;3299;42.004;24.868;2024-02-26T07:11:20;97802.19;;;11.40;100.00
6532;BME280;3299;42.004;24.868;2024-02-26T07:13:46;97848.28;;;11.57;100.00
6532;BME280;3299;42.004;24.868;2024-02-26T07:16:11;97804.28;;;11.25;100.00
6532;BME280;3299;42.004;24.868;2024-02-26T07:18:38;97891.56;;;11.77;100.00
6532;BME280;3299;42.004;24.868;2024-02-26T07:21:04;97890.03;;;11.74;100.00
6532;BME280;3299;42.004;24.868;2024-02-26T07:23:29;97849.28;;;11.45;100.00
6532;BME280;3299;42.004;24.868;2024-02-26T07:25:55;97815.66;;;11.34;100.00
6532;BME280;3299;42.004;24.868;2024-02-26T07:28:20;97857.00;;;11.56;100.00
6532;BME280;3299;42.004;24.868;2024-02-26T07:30:45;97880.00;;;11.81;100.00
6532;BME280;3299;42.004;24.868;2024-02-26T07:33:11;97847.94;;;11.61;100.00
6532;BME280;3299;42.004;24.868;2024-02-26T07:35:36;97833.16;;;11.41;100.00
6532;BME280;3299;42.004;24.868;2024-02-26T07:38:04;97818.06;;;11.26;100.00
6532;BME280;3299;42.004;24.868;2024-02-26T07:40:29;97896.78;;;11.66;100.00
6532;BME280;3299;42.004;24.868;2024-02-26T07:42:55;97881.25;;;11.66;100.00
6532;BME280;3299;42.004;24.868;2024-02-26T07:45:21;97876.00;;;11.77;100.00
6532;BME280;3299;42.004;24.868;2024-02-26T07:47:47;97878.81;;;11.85;100.00
6532;BME280;3299;42.004;24.868;2024-02-26T07:50:12;97807.66;;;11.37;100.00
6532;BME280;3299;42.004;24.868;2024-02-26T07:52:38;97895.44;;;12.03;100.00
6532;BME280;3299;42.004;24.868;2024-02-26T07:55:04;97864.72;;;11.78;100.00
6532;BME280;3299;42.004;24.868;2024-02-26T07:57:31;97892.72;;;11.84;100.00
6532;BME280;3299;42.004;24.868;2024-02-26T07:59:56;97866.16;;;11.71;100.00
6532;BME280;3299;42.004;24.868;2024-02-26T08:02:22;97842.13;;;11.69;100.00
6532;BME280;3299;42.004;24.868;2024-02-26T08:04:47;97880.63;;;11.94;100.00
6532;BME280;3299;42.004;24.868;2024-02-26T08:07:12;97864.97;;;11.95;100.00
6532;BME280;3299;42.004;24.868;2024-02-26T08:09:38;97874.25;;;11.98;100.00
6532;BME280;3299;42.004;24.868;2024-02-26T08:12:04;97796.22;;;11.60;100.00
6532;BME280;3299;42.004;24.868;2024-02-26T08:14:30;97801.81;;;11.76;100.00
6532;BME280;3299;42.004;24.868;2024-02-26T08:16:57;97789.81;;;11.75;100.00
6532;BME280;3299;42.004;24.868;2024-02-26T08:19:23;97789.69;;;11.76;100.00
6532;BME280;3299;42.004;24.868;2024-02-26T08:21:48;97793.00;;;11.88;100.00
6532;BME280;3299;42.004;24.868;2024-02-26T08:24:13;97849.88;;;12.30;100.00
6532;BME280;3299;42.004;24.868;2024-02-26T08:26:41;97804.31;;;12.07;100.00
6532;BME280;3299;42.004;24.868;2024-02-26T08:29:07;97830.53;;;12.34;100.00
6532;BME280;3299;42.004;24.868;2024-02-26T08:31:32;97862.25;;;12.47;97.02
6532;BME280;3299;42.004;24.868;2024-02-26T08:33:57;97863.69;;;12.61;97.42
6532;BME280;3299;42.004;24.868;2024-02-26T08:36:24;97825.09;;;12.47;95.80
6532;BME280;3299;42.004;24.868;2024-02-26T08:38:49;97836.31;;;12.47;93.45
6532;BME280;3299;42.004;24.868;2024-02-26T08:41:15;97873.56;;;12.76;92.84
6532;BME280;3299;42.004;24.868;2024-02-26T08:43:40;97861.81;;;12.82;93.03
6532;BME280;3299;42.004;24.868;2024-02-26T08:46:09;97800.28;;;12.54;92.88
6532;BME280;3299;42.004;24.868;2024-02-26T08:48:35;97787.72;;;12.59;93.35
6532;BME280;3299;42.004;24.868;2024-02-26T08:51:05;97789.94;;;12.73;93.47
6532;BME280;3299;42.004;24.868;2024-02-26T08:53:30;97858.69;;;13.18;93.53
6532;BME280;3299;42.004;24.868;2024-02-26T08:55:55;97872.13;;;13.42;94.29
6532;BME280;3299;42.004;24.868;2024-02-26T08:58:21;97804.94;;;13.09;95.00
6532;BME280;3299;42.004;24.868;2024-02-26T09:00:46;97837.06;;;13.27;95.23
6532;BME280;3299;42.004;24.868;2024-02-26T09:03:12;97794.13;;;13.13;94.44
6532;BME280;3299;42.004;24.868;2024-02-26T09:05:37;97823.97;;;13.28;95.55
6532;BME280;3299;42.004;24.868;2024-02-26T09:08:03;97799.06;;;13.16;95.92
6532;BME280;3299;42.004;24.868;2024-02-26T09:10:28;97836.41;;;13.44;96.47
6532;BME280;3299;42.004;24.868;2024-02-26T09:12:54;97855.13;;;13.57;97.14
6532;BME280;3299;42.004;24.868;2024-02-26T09:15:20;97843.66;;;13.50;97.55
6532;BME280;3299;42.004;24.868;2024-02-26T09:17:45;97779.09;;;13.17;97.87
6532;BME280;3299;42.004;24.868;2024-02-26T09:20:11;97865.28;;;13.50;98.81
6532;BME280;3299;42.004;24.868;2024-02-26T09:22:39;97835.03;;;13.21;100.00
6532;BME280;3299;42.004;24.868;2024-02-26T09:25:05;97868.00;;;13.49;100.00
6532;BME280;3299;42.004;24.868;2024-02-26T09:27:31;97788.94;;;13.04;100.00
6532;BME280;3299;42.004;24.868;2024-02-26T09:29:57;97788.13;;;13.13;100.00
6532;BME280;3299;42.004;24.868;2024-02-26T09:32:22;97880.03;;;13.69;100.00
6532;BME280;3299;42.004;24.868;2024-02-26T09:34:50;97891.81;;;13.73;100.00
6532;BME280;3299;42.004;24.868;2024-02-26T09:37:15;97886.91;;;13.70;100.00
6532;BME280;3299;42.004;24.868;2024-02-26T09:39:40;97880.31;;;13.66;100.00
6532;BME280;3299;42.004;24.868;2024-02-26T09:42:06;97802.22;;;13.20;100.00
6532;BME280;3299;42.004;24.868;2024-02-26T09:44:36;97791.94;;;13.09;100.00
6532;BME280;3299;42.004;24.868;2024-02-26T09:47:05;97813.56;;;13.38;100.00
6532;BME280;3299;42.004;24.868;2024-02-26T09:49:34;97818.50;;;13.50;100.00
6532;BME280;3299;42.004;24.868;2024-02-26T09:52:00;97783.22;;;13.38;100.00
6532;BME280;3299;42.004;24.868;2024-02-26T09:54:28;97789.38;;;13.47;100.00
6532;BME280;3299;42.004;24.868;2024-02-26T09:56:59;97858.69;;;13.94;99.81
6532;BME280;3299;42.004;24.868;2024-02-26T09:59:27;97848.31;;;13.84;98.75
6532;BME280;3299;42.004;24.868;2024-02-26T10:01:53;97804.41;;;13.53;98.89
6532;BME280;3299;42.004;24.868;2024-02-26T10:04:20;97811.09;;;13.65;99.77
6532;BME280;3299;42.004;24.868;2024-02-26T10:06:46;97783.72;;;13.61;98.54
6532;BME280;3299;42.004;24.868;2024-02-26T10:09:12;97835.69;;;13.89;97.78
6532;BME280;3299;42.004;24.868;2024-02-26T10:11:37;97790.84;;;13.30;100.00
6532;BME280;3299;42.004;24.868;2024-02-26T10:14:03;97816.69;;;13.51;99.67
6532;BME280;3299;42.004;24.868;2024-02-26T10:16:29;97840.50;;;13.65;99.76
6532;BME280;3299;42.004;24.868;2024-02-26T10:18:55;97833.25;;;13.78;99.42
6532;BME280;3299;42.004;24.868;2024-02-26T10:21:21;97829.91;;;13.95;97.73
6532;BME280;3299;42.004;24.868;2024-02-26T10:23:47;97789.72;;;13.80;96.12
6532;BME280;3299;42.004;24.868;2024-02-26T10:26:13;97771.13;;;13.75;94.83
6532;BME280;3299;42.004;24.868;2024-02-26T10:28:40;97758.28;;;13.64;95.16
6532;BME280;3299;42.004;24.868;2024-02-26T10:31:06;97730.66;;;13.54;95.96
6532;BME280;3299;42.004;24.868;2024-02-26T10:33:38;97815.66;;;14.09;96.23
6532;BME280;3299;42.004;24.868;2024-02-26T10:36:05;97804.47;;;13.99;96.28
6532;BME280;3299;42.004;24.868;2024-02-26T10:38:32;97773.28;;;13.80;96.71
6532;BME280;3299;42.004;24.868;2024-02-26T10:40:57;97770.50;;;14.00;95.60
6532;BME280;3299;42.004;24.868;2024-02-26T10:43:24;97722.97;;;13.62;94.72
6532;BME280;3299;42.004;24.868;2024-02-26T10:45:50;97797.41;;;14.18;94.67
6532;BME280;3299;42.004;24.868;2024-02-26T10:48:15;97803.34;;;14.20;95.05
6532;BME280;3299;42.004;24.868;2024-02-26T10:50:42;97797.53;;;14.36;93.49
6532;BME280;3299;42.004;24.868;2024-02-26T10:53:13;97718.25;;;13.94;92.07
6532;BME280;3299;42.004;24.868;2024-02-26T10:55:41;97801.28;;;14.51;91.95
6532;BME280;3299;42.004;24.868;2024-02-26T10:58:08;97786.41;;;14.43;90.31
6532;BME280;3299;42.004;24.868;2024-02-26T11:00:35;97717.16;;;13.96;89.50
6532;BME280;3299;42.004;24.868;2024-02-26T11:03:02;97785.19;;;14.38;89.98
6532;BME280;3299;42.004;24.868;2024-02-26T11:05:31;97732.28;;;14.10;88.31
6532;BME280;3299;42.004;24.868;2024-02-26T11:07:59;97777.78;;;14.43;88.20
6532;BME280;3299;42.004;24.868;2024-02-26T11:10:26;97744.91;;;14.42;87.44
6532;BME280;3299;42.004;24.868;2024-02-26T11:12:54;97691.84;;;14.16;85.48
6532;BME280;3299;42.004;24.868;2024-02-26T11:15:21;97735.22;;;14.34;86.27
6532;BME280;3299;42.004;24.868;2024-02-26T11:17:47;97716.31;;;14.32;86.43
6532;BME280;3299;42.004;24.868;2024-02-26T11:20:14;97751.59;;;14.71;85.74
6532;BME280;3299;42.004;24.868;2024-02-26T11:22:40;97692.19;;;14.40;84.91
6532;BME280;3299;42.004;24.868;2024-02-26T11:25:06;97694.00;;;14.57;84.38
6532;BME280;3299;42.004;24.868;2024-02-26T11:27:36;97750.66;;;15.07;83.46
6532;BME280;3299;42.004;24.868;2024-02-26T11:30:05;97750.59;;;15.17;83.05
6532;BME280;3299;42.004;24.868;2024-02-26T11:32:34;97692.44;;;14.99;81.35
6532;BME280;3299;42.004;24.868;2024-02-26T11:35:00;97752.50;;;15.50;78.83
6532;BME280;3299;42.004;24.868;2024-02-26T11:37:26;97730.72;;;15.33;79.18
6532;BME280;3299;42.004;24.868;2024-02-26T11:39:52;97763.53;;;15.61;78.97
6532;BME280;3299;42.004;24.868;2024-02-26T11:42:23;97737.53;;;15.52;78.88
6532;BME280;3299;42.004;24.868;2024-02-26T11:44:48;97677.53;;;15.09;78.63
6532;BME280;3299;42.004;24.868;2024-02-26T11:47:18;97721.16;;;15.42;78.86
6532;BME280;3299;42.004;24.868;2024-02-26T11:49:44;97675.28;;;15.14;78.53
6532;BME280;3299;42.004;24.868;2024-02-26T11:52:10;97675.53;;;15.20;78.37
6532;BME280;3299;42.004;24.868;2024-02-26T11:54:47;97663.59;;;15.18;78.09
6532;BME280;3299;42.004;24.868;2024-02-26T11:57:39;97708.53;;;15.55;77.56
6532;BME280;3299;42.004;24.868;2024-02-26T12:05:22;97661.34;;;15.66;75.49
6532;BME280;3299;42.004;24.868;2024-02-26T12:07:55;97658.63;;;15.75;74.76
6532;BME280;3299;42.004;24.868;2024-02-26T12:10:30;97722.28;;;16.16;75.08
6532;BME280;3299;42.004;24.868;2024-02-26T12:13:05;97640.38;;;15.75;74.22
6532;BME280;3299;42.004;24.868;2024-02-26T12:15:39;97671.59;;;15.85;74.95
6532;BME280;3299;42.004;24.868;2024-02-26T12:18:06;97664.09;;;15.90;74.41
6532;BME280;3299;42.004;24.868;2024-02-26T12:20:33;97712.22;;;16.29;74.01
6532;BME280;3299;42.004;24.868;2024-02-26T12:22:59;97669.06;;;16.09;74.00
6532;BME280;3299;42.004;24.868;2024-02-26T12:25:27;97676.94;;;16.17;73.66
6532;BME280;3299;42.004;24.868;2024-02-26T12:27:53;97720.44;;;16.42;73.11
6532;BME280;3299;42.004;24.868;2024-02-26T12:30:19;97706.69;;;16.32;73.62
6532;BME280;3299;42.004;24.868;2024-02-26T12:32:48;97648.84;;;16.03;72.64
6532;BME280;3299;42.004;24.868;2024-02-26T12:35:15;97715.91;;;16.44;71.56
6532;BME280;3299;42.004;24.868;2024-02-26T12:37:41;97645.66;;;15.91;72.22
6532;BME280;3299;42.004;24.868;2024-02-26T12:40:10;97640.94;;;15.87;72.33
6532;BME280;3299;42.004;24.868;2024-02-26T12:42:36;97720.03;;;16.21;73.13
6532;BME280;3299;42.004;24.868;2024-02-26T12:45:10;97648.44;;;15.90;73.13
6532;BME280;3299;42.004;24.868;2024-02-26T12:47:43;97701.97;;;16.35;71.94
6532;BME280;3299;42.004;24.868;2024-02-26T12:50:11;97673.50;;;16.16;71.63
6532;BME280;3299;42.004;24.868;2024-02-26T12:52:41;97644.56;;;16.02;70.64
6532;BME280;3299;42.004;24.868;2024-02-26T12:55:08;97685.81;;;16.32;70.06
6532;BME280;3299;42.004;24.868;2024-02-26T12:57:38;97712.97;;;16.47;70.64
6532;BME280;3299;42.004;24.868;2024-02-26T13:00:08;97677.13;;;16.23;70.64
6532;BME280;3299;42.004;24.868;2024-02-26T13:02:37;97714.44;;;16.49;70.46
6532;BME280;3299;42.004;24.868;2024-02-26T13:05:05;97686.09;;;16.29;70.12
6532;BME280;3299;42.004;24.868;2024-02-26T13:07:30;97642.63;;;16.04;70.29